EUS17UU EKVG-EGPH
Flight info
| Callsign | EUS17UU |
|---|---|
| Flight time | 1h 15m |
| Altitude | 37000 |
| Route | ODEVA DCT NALAN DCT LAGAV N560 FOYLE DCT STIRA |
| Aircraft | B738/M-SDE2E3FGHIRWXY/LB1 |
Departure
| Time | 2026-05-09 00:00 |
|---|---|
| Airport | Vágar Airport (EKVG) |
Arrival
| Time | 2026-05-09 01:15 |
|---|---|
| Airport | Edinburgh Airport (EGPH) |
| Time | Latitude | Longitude | Altitude | Speed | Heading |
|---|---|---|---|---|---|
| 2026-05-08 23:43 | 62.06660 | -7.27876 | 278 ft | 0 kts | 28° |
| 2026-05-08 23:51 | 62.06657 | -7.27880 | 278 ft | 2 kts | 28° |
| 2026-05-08 23:51 | 62.06643 | -7.27896 | 278 ft | 2 kts | 28° |
| 2026-05-08 23:51 | 62.06629 | -7.27912 | 280 ft | 2 kts | 26° |
| 2026-05-08 23:52 | 62.06627 | -7.27915 | 281 ft | 0 kts | 25° |
| 2026-05-08 23:52 | 62.06637 | -7.27910 | 278 ft | 6 kts | 8° |
| 2026-05-08 23:53 | 62.06656 | -7.27966 | 278 ft | 5 kts | 276° |
| 2026-05-08 23:53 | 62.06656 | -7.28041 | 278 ft | 5 kts | 258° |
| 2026-05-08 23:53 | 62.06631 | -7.28088 | 278 ft | 5 kts | 194° |
| 2026-05-08 23:53 | 62.06620 | -7.28089 | 278 ft | 0 kts | 181° |
| 2026-05-08 23:54 | 62.06575 | -7.28092 | 279 ft | 9 kts | 186° |
| 2026-05-08 23:55 | 62.06569 | -7.28095 | 281 ft | 0 kts | 191° |
| 2026-05-08 23:57 | 62.06504 | -7.28145 | 279 ft | 11 kts | 201° |
| 2026-05-08 23:57 | 62.06445 | -7.28068 | 280 ft | 11 kts | 119° |
| 2026-05-08 23:57 | 62.06411 | -7.27922 | 286 ft | 11 kts | 116° |
| 2026-05-08 23:57 | 62.06368 | -7.27748 | 285 ft | 20 kts | 119° |
| 2026-05-08 23:58 | 62.06263 | -7.27328 | 283 ft | 46 kts | 118° |
| 2026-05-08 23:58 | 62.06105 | -7.26698 | 262 ft | 49 kts | 118° |
| 2026-05-08 23:58 | 62.05983 | -7.26183 | 243 ft | 27 kts | 117° |
| 2026-05-08 23:58 | 62.05937 | -7.25992 | 237 ft | 9 kts | 158° |
| 2026-05-08 23:59 | 62.05920 | -7.25988 | 237 ft | 0 kts | 191° |
| 2026-05-08 23:59 | 62.05919 | -7.25997 | 237 ft | 1 kts | 241° |
| 2026-05-08 23:59 | 62.05951 | -7.26094 | 240 ft | 21 kts | 307° |
| 2026-05-08 23:59 | 62.06139 | -7.26839 | 266 ft | 92 kts | 298° |
| 2026-05-09 00:00 | 62.06522 | -7.28398 | 566 ft | 130 kts | 296° |
| 2026-05-09 00:00 | 62.06874 | -7.30221 | 1522 ft | 135 kts | 295° |
| 2026-05-09 00:00 | 62.07311 | -7.31796 | 2658 ft | 127 kts | 311° |
| 2026-05-09 00:00 | 62.07764 | -7.33684 | 3036 ft | 162 kts | 290° |
| 2026-05-09 00:01 | 62.08091 | -7.36199 | 3334 ft | 185 kts | 292° |
| 2026-05-09 00:01 | 62.08480 | -7.38877 | 3862 ft | 195 kts | 292° |
| 2026-05-09 00:01 | 62.08896 | -7.41698 | 4512 ft | 204 kts | 291° |
| 2026-05-09 00:01 | 62.09316 | -7.44617 | 5452 ft | 205 kts | 289° |
| 2026-05-09 00:02 | 62.09553 | -7.47639 | 6419 ft | 210 kts | 279° |
| 2026-05-09 00:02 | 62.09492 | -7.50813 | 7270 ft | 218 kts | 269° |
| 2026-05-09 00:02 | 62.09105 | -7.54048 | 8022 ft | 233 kts | 257° |
| 2026-05-09 00:02 | 62.08373 | -7.57237 | 8781 ft | 248 kts | 244° |
| 2026-05-09 00:03 | 62.07203 | -7.60025 | 9720 ft | 257 kts | 229° |
| 2026-05-09 00:03 | 62.05689 | -7.62230 | 10460 ft | 271 kts | 213° |
| 2026-05-09 00:03 | 62.03905 | -7.63588 | 11404 ft | 276 kts | 198° |
| 2026-05-09 00:03 | 62.01961 | -7.63946 | 12275 ft | 286 kts | 182° |
| 2026-05-09 00:04 | 61.99980 | -7.63140 | 13207 ft | 293 kts | 165° |
| 2026-05-09 00:04 | 61.98138 | -7.61165 | 14045 ft | 306 kts | 147° |
| 2026-05-09 00:04 | 61.96567 | -7.57923 | 14616 ft | 321 kts | 126° |
| 2026-05-09 00:04 | 61.95558 | -7.53798 | 15751 ft | 311 kts | 108° |
| 2026-05-09 00:05 | 61.95130 | -7.49282 | 16524 ft | 316 kts | 92° |
| 2026-05-09 00:05 | 61.94943 | -7.44556 | 17127 ft | 326 kts | 92° |
| 2026-05-09 00:05 | 61.94724 | -7.39841 | 18317 ft | 316 kts | 93° |
| 2026-05-09 00:05 | 61.94497 | -7.35151 | 18991 ft | 323 kts | 94° |
| 2026-05-09 00:06 | 61.94257 | -7.30296 | 19322 ft | 342 kts | 94° |
| 2026-05-09 00:06 | 61.93990 | -7.25053 | 19278 ft | 371 kts | 94° |
| 2026-05-09 00:06 | 61.93696 | -7.19436 | 19252 ft | 396 kts | 95° |
| 2026-05-09 00:06 | 61.93381 | -7.13549 | 19261 ft | 414 kts | 95° |
| 2026-05-09 00:07 | 61.93044 | -7.07348 | 19733 ft | 421 kts | 95° |
| 2026-05-09 00:07 | 61.92704 | -7.01196 | 20637 ft | 417 kts | 95° |
| 2026-05-09 00:07 | 61.92366 | -6.95106 | 21520 ft | 414 kts | 95° |
| 2026-05-09 00:07 | 61.92026 | -6.89017 | 22347 ft | 413 kts | 95° |
| 2026-05-09 00:08 | 61.91690 | -6.83007 | 23380 ft | 406 kts | 95° |
| 2026-05-09 00:08 | 61.91356 | -6.77076 | 24092 ft | 408 kts | 96° |
| 2026-05-09 00:08 | 61.90993 | -6.71035 | 24374 ft | 419 kts | 99° |
| 2026-05-09 00:08 | 61.89985 | -6.65230 | 24831 ft | 423 kts | 122° |
| 2026-05-09 00:09 | 61.88142 | -6.60434 | 25430 ft | 421 kts | 140° |
| 2026-05-09 00:09 | 61.85690 | -6.57019 | 25632 ft | 426 kts | 160° |
| 2026-05-09 00:09 | 61.82888 | -6.54948 | 26026 ft | 429 kts | 165° |
| 2026-05-09 00:09 | 61.80054 | -6.53049 | 26340 ft | 435 kts | 166° |
| 2026-05-09 00:10 | 61.77112 | -6.51130 | 26865 ft | 437 kts | 166° |
| 2026-05-09 00:10 | 61.74231 | -6.49249 | 27273 ft | 441 kts | 166° |
| 2026-05-09 00:10 | 61.71255 | -6.47293 | 27749 ft | 443 kts | 166° |
| 2026-05-09 00:10 | 61.68347 | -6.45355 | 28162 ft | 447 kts | 166° |
| 2026-05-09 00:11 | 61.65374 | -6.43358 | 28554 ft | 450 kts | 166° |
| 2026-05-09 00:11 | 61.62390 | -6.41341 | 29029 ft | 452 kts | 166° |
| 2026-05-09 00:11 | 61.59386 | -6.39308 | 29395 ft | 455 kts | 165° |
| 2026-05-09 00:11 | 61.56375 | -6.37274 | 29778 ft | 458 kts | 166° |
| 2026-05-09 00:12 | 61.53334 | -6.35227 | 30172 ft | 460 kts | 165° |
| 2026-05-09 00:12 | 61.50270 | -6.33166 | 30467 ft | 463 kts | 166° |
| 2026-05-09 00:12 | 61.47194 | -6.31106 | 30735 ft | 466 kts | 165° |
| 2026-05-09 00:12 | 61.44106 | -6.29040 | 31090 ft | 466 kts | 165° |
| 2026-05-09 00:13 | 61.41021 | -6.26982 | 31466 ft | 466 kts | 166° |
| 2026-05-09 00:13 | 61.37945 | -6.24935 | 31850 ft | 465 kts | 166° |
| 2026-05-09 00:13 | 61.34863 | -6.22884 | 32234 ft | 465 kts | 166° |
| 2026-05-09 00:13 | 61.31781 | -6.20838 | 32613 ft | 464 kts | 166° |
| 2026-05-09 00:14 | 61.28700 | -6.18802 | 32981 ft | 464 kts | 166° |
| 2026-05-09 00:14 | 61.25628 | -6.16774 | 33349 ft | 464 kts | 166° |
| 2026-05-09 00:14 | 61.22550 | -6.14743 | 33713 ft | 464 kts | 165° |
| 2026-05-09 00:14 | 61.19475 | -6.12717 | 34095 ft | 463 kts | 166° |
| 2026-05-09 00:15 | 61.16401 | -6.10700 | 34390 ft | 463 kts | 165° |
| 2026-05-09 00:15 | 61.13326 | -6.08683 | 34673 ft | 463 kts | 166° |
| 2026-05-09 00:15 | 61.10259 | -6.06678 | 34950 ft | 463 kts | 166° |
| 2026-05-09 00:15 | 61.07182 | -6.04672 | 35229 ft | 464 kts | 166° |
| 2026-05-09 00:16 | 61.04104 | -6.02667 | 35504 ft | 464 kts | 166° |
| 2026-05-09 00:16 | 61.01027 | -6.00667 | 35789 ft | 463 kts | 166° |
| 2026-05-09 00:16 | 60.97935 | -5.98812 | 36063 ft | 462 kts | 169° |
| 2026-05-09 00:16 | 60.94826 | -5.97196 | 36317 ft | 462 kts | 170° |
| 2026-05-09 00:17 | 60.91698 | -5.95689 | 36569 ft | 462 kts | 170° |
| 2026-05-09 00:17 | 60.88566 | -5.94220 | 36837 ft | 461 kts | 171° |
| 2026-05-09 00:17 | 60.85436 | -5.92748 | 37103 ft | 461 kts | 170° |
| 2026-05-09 00:18 | 60.79160 | -5.89756 | 37156 ft | 465 kts | 169° |
| 2026-05-09 00:18 | 60.72889 | -5.86716 | 37157 ft | 461 kts | 170° |
| 2026-05-09 00:19 | 60.66677 | -5.83693 | 37166 ft | 458 kts | 170° |
| 2026-05-09 00:19 | 60.60491 | -5.80698 | 37168 ft | 456 kts | 170° |
| 2026-05-09 00:20 | 60.54326 | -5.77728 | 37173 ft | 455 kts | 170° |
| 2026-05-09 00:20 | 60.48174 | -5.74783 | 37177 ft | 455 kts | 170° |
| 2026-05-09 00:21 | 60.42010 | -5.71838 | 37179 ft | 455 kts | 170° |
| 2026-05-09 00:21 | 60.35829 | -5.68895 | 37181 ft | 457 kts | 170° |
| 2026-05-09 00:22 | 60.30686 | -5.66455 | 37186 ft | 458 kts | 170° |
| 2026-05-09 00:22 | 60.24468 | -5.63518 | 37189 ft | 459 kts | 170° |
| 2026-05-09 00:23 | 60.18241 | -5.60589 | 37195 ft | 460 kts | 170° |
| 2026-05-09 00:23 | 60.11994 | -5.57656 | 37198 ft | 461 kts | 170° |
| 2026-05-09 00:24 | 60.05746 | -5.54735 | 37196 ft | 461 kts | 170° |
| 2026-05-09 00:24 | 59.99492 | -5.51825 | 37205 ft | 461 kts | 170° |
| 2026-05-09 00:25 | 59.93243 | -5.48931 | 37204 ft | 460 kts | 170° |
| 2026-05-09 00:25 | 59.87004 | -5.46051 | 37205 ft | 459 kts | 170° |
| 2026-05-09 00:26 | 59.80779 | -5.43187 | 37208 ft | 458 kts | 170° |
| 2026-05-09 00:26 | 59.74575 | -5.40344 | 37214 ft | 457 kts | 170° |
| 2026-05-09 00:27 | 59.68378 | -5.37515 | 37217 ft | 456 kts | 170° |
| 2026-05-09 00:27 | 59.62200 | -5.34706 | 37218 ft | 455 kts | 170° |
| 2026-05-09 00:28 | 59.56067 | -5.31928 | 37223 ft | 455 kts | 170° |
| 2026-05-09 00:28 | 59.49896 | -5.29143 | 37224 ft | 454 kts | 171° |
| 2026-05-09 00:29 | 59.43739 | -5.26375 | 37228 ft | 453 kts | 171° |
| 2026-05-09 00:29 | 59.37590 | -5.23622 | 37231 ft | 453 kts | 171° |
| 2026-05-09 00:30 | 59.31447 | -5.20880 | 37234 ft | 453 kts | 171° |
| 2026-05-09 00:30 | 59.25302 | -5.18148 | 37235 ft | 453 kts | 171° |
| 2026-05-09 00:31 | 59.19160 | -5.15428 | 37234 ft | 453 kts | 171° |
| 2026-05-09 00:31 | 59.13017 | -5.12717 | 37237 ft | 453 kts | 171° |
| 2026-05-09 00:32 | 59.06876 | -5.10016 | 37244 ft | 452 kts | 171° |
| 2026-05-09 00:32 | 59.00736 | -5.07326 | 37247 ft | 452 kts | 171° |
| 2026-05-09 00:33 | 58.94599 | -5.04647 | 37244 ft | 452 kts | 171° |
| 2026-05-09 00:33 | 58.88462 | -5.01978 | 37241 ft | 452 kts | 171° |
| 2026-05-09 00:34 | 58.82331 | -4.99321 | 37242 ft | 451 kts | 172° |
| 2026-05-09 00:34 | 58.76201 | -4.96674 | 37249 ft | 451 kts | 172° |
| 2026-05-09 00:35 | 58.70081 | -4.94041 | 37252 ft | 451 kts | 172° |
| 2026-05-09 00:35 | 58.63967 | -4.91420 | 37253 ft | 450 kts | 172° |
| 2026-05-09 00:36 | 58.57858 | -4.88811 | 37258 ft | 450 kts | 172° |
| 2026-05-09 00:36 | 58.51749 | -4.86211 | 37256 ft | 449 kts | 172° |
| 2026-05-09 00:37 | 58.45653 | -4.83626 | 37263 ft | 449 kts | 172° |
| 2026-05-09 00:37 | 58.39553 | -4.81049 | 37251 ft | 449 kts | 172° |
| 2026-05-09 00:38 | 58.33464 | -4.78484 | 37261 ft | 448 kts | 172° |
| 2026-05-09 00:38 | 58.27423 | -4.75949 | 37256 ft | 447 kts | 172° |
| 2026-05-09 00:39 | 58.21361 | -4.73413 | 37247 ft | 446 kts | 173° |
| 2026-05-09 00:39 | 58.15308 | -4.70891 | 37243 ft | 445 kts | 173° |
| 2026-05-09 00:40 | 58.09267 | -4.68383 | 37263 ft | 444 kts | 173° |
| 2026-05-09 00:40 | 58.03238 | -4.65888 | 37254 ft | 443 kts | 173° |
| 2026-05-09 00:41 | 57.94215 | -4.62170 | 37252 ft | 442 kts | 173° |
| 2026-05-09 00:41 | 57.88216 | -4.59708 | 37266 ft | 441 kts | 173° |
| 2026-05-09 00:42 | 57.82225 | -4.57260 | 37257 ft | 440 kts | 173° |
| 2026-05-09 00:42 | 57.76240 | -4.54821 | 37251 ft | 440 kts | 173° |
| 2026-05-09 00:43 | 57.70308 | -4.52412 | 37264 ft | 439 kts | 173° |
| 2026-05-09 00:43 | 57.64341 | -4.49997 | 37260 ft | 439 kts | 174° |
| 2026-05-09 00:44 | 57.58369 | -4.47588 | 37266 ft | 439 kts | 174° |
| 2026-05-09 00:44 | 57.52392 | -4.45187 | 36835 ft | 443 kts | 174° |
| 2026-05-09 00:45 | 57.49384 | -4.43981 | 36307 ft | 440 kts | 175° |
| 2026-05-09 00:45 | 57.46400 | -4.42783 | 35699 ft | 439 kts | 175° |
| 2026-05-09 00:45 | 57.43412 | -4.41587 | 35040 ft | 439 kts | 176° |
| 2026-05-09 00:45 | 57.40431 | -4.40396 | 34493 ft | 436 kts | 176° |
| 2026-05-09 00:46 | 57.37493 | -4.39218 | 33964 ft | 426 kts | 177° |
| 2026-05-09 00:46 | 57.34626 | -4.38067 | 33496 ft | 417 kts | 177° |
| 2026-05-09 00:46 | 57.31812 | -4.36945 | 33016 ft | 412 kts | 178° |
| 2026-05-09 00:46 | 57.29029 | -4.35842 | 32567 ft | 406 kts | 178° |
| 2026-05-09 00:47 | 57.26276 | -4.34754 | 32121 ft | 400 kts | 178° |
| 2026-05-09 00:47 | 57.23571 | -4.33688 | 31679 ft | 396 kts | 178° |
| 2026-05-09 00:47 | 57.20888 | -4.32632 | 31217 ft | 392 kts | 178° |
| 2026-05-09 00:47 | 57.18241 | -4.31590 | 30805 ft | 387 kts | 178° |
| 2026-05-09 00:48 | 57.15616 | -4.30559 | 30367 ft | 383 kts | 178° |
| 2026-05-09 00:48 | 57.13020 | -4.29540 | 29883 ft | 379 kts | 178° |
| 2026-05-09 00:48 | 57.10463 | -4.28536 | 29443 ft | 373 kts | 178° |
| 2026-05-09 00:48 | 57.07951 | -4.27551 | 29012 ft | 367 kts | 178° |
| 2026-05-09 00:49 | 57.05466 | -4.26579 | 28582 ft | 362 kts | 178° |
| 2026-05-09 00:49 | 57.03017 | -4.25623 | 28154 ft | 358 kts | 178° |
| 2026-05-09 00:49 | 57.00597 | -4.24682 | 27737 ft | 353 kts | 178° |
| 2026-05-09 00:49 | 56.98209 | -4.23755 | 27334 ft | 349 kts | 178° |
| 2026-05-09 00:50 | 56.95841 | -4.22835 | 26924 ft | 346 kts | 178° |
| 2026-05-09 00:50 | 56.93490 | -4.21921 | 26522 ft | 343 kts | 178° |
| 2026-05-09 00:50 | 56.91169 | -4.21031 | 26125 ft | 339 kts | 179° |
| 2026-05-09 00:50 | 56.88862 | -4.20611 | 25747 ft | 329 kts | 188° |
| 2026-05-09 00:51 | 56.86620 | -4.20868 | 25503 ft | 322 kts | 195° |
| 2026-05-09 00:51 | 56.84356 | -4.21435 | 25201 ft | 335 kts | 195° |
| 2026-05-09 00:51 | 56.82026 | -4.22041 | 24809 ft | 338 kts | 195° |
| 2026-05-09 00:51 | 56.79705 | -4.22628 | 24375 ft | 336 kts | 194° |
| 2026-05-09 00:52 | 56.77397 | -4.23199 | 23967 ft | 333 kts | 194° |
| 2026-05-09 00:52 | 56.75100 | -4.23760 | 23485 ft | 331 kts | 194° |
| 2026-05-09 00:52 | 56.72833 | -4.24310 | 23046 ft | 328 kts | 194° |
| 2026-05-09 00:52 | 56.70586 | -4.24853 | 22638 ft | 324 kts | 194° |
| 2026-05-09 00:53 | 56.68390 | -4.25384 | 22213 ft | 321 kts | 194° |
| 2026-05-09 00:53 | 56.66183 | -4.25917 | 21799 ft | 318 kts | 194° |
| 2026-05-09 00:53 | 56.63976 | -4.26450 | 21415 ft | 314 kts | 193° |
| 2026-05-09 00:53 | 56.61811 | -4.26970 | 20980 ft | 313 kts | 193° |
| 2026-05-09 00:54 | 56.59660 | -4.27485 | 20611 ft | 310 kts | 193° |
| 2026-05-09 00:54 | 56.57550 | -4.27995 | 20209 ft | 309 kts | 193° |
| 2026-05-09 00:54 | 56.55434 | -4.28508 | 19815 ft | 307 kts | 193° |
| 2026-05-09 00:54 | 56.53318 | -4.29017 | 19439 ft | 305 kts | 193° |
| 2026-05-09 00:55 | 56.51215 | -4.29521 | 19068 ft | 304 kts | 193° |
| 2026-05-09 00:55 | 56.49114 | -4.30026 | 18681 ft | 307 kts | 192° |
| 2026-05-09 00:55 | 56.46988 | -4.30536 | 18265 ft | 310 kts | 192° |
| 2026-05-09 00:55 | 56.44826 | -4.31053 | 17835 ft | 316 kts | 192° |
| 2026-05-09 00:56 | 56.42635 | -4.31571 | 17418 ft | 318 kts | 192° |
| 2026-05-09 00:56 | 56.40445 | -4.32084 | 17009 ft | 316 kts | 192° |
| 2026-05-09 00:56 | 56.38286 | -4.32588 | 16649 ft | 312 kts | 192° |
| 2026-05-09 00:56 | 56.36143 | -4.33091 | 16297 ft | 308 kts | 191° |
| 2026-05-09 00:57 | 56.34028 | -4.33586 | 15901 ft | 305 kts | 191° |
| 2026-05-09 00:57 | 56.31938 | -4.34077 | 15554 ft | 301 kts | 191° |
| 2026-05-09 00:57 | 56.29873 | -4.34561 | 15188 ft | 298 kts | 191° |
| 2026-05-09 00:57 | 56.27821 | -4.35042 | 14840 ft | 296 kts | 191° |
| 2026-05-09 00:58 | 56.25778 | -4.35523 | 14467 ft | 296 kts | 191° |
| 2026-05-09 00:58 | 56.23740 | -4.36000 | 14101 ft | 295 kts | 191° |
| 2026-05-09 00:58 | 56.21702 | -4.36475 | 13677 ft | 295 kts | 191° |
| 2026-05-09 00:58 | 56.19675 | -4.36936 | 13262 ft | 294 kts | 188° |
| 2026-05-09 00:59 | 56.17636 | -4.36517 | 12905 ft | 300 kts | 165° |
| 2026-05-09 00:59 | 56.15822 | -4.34613 | 12503 ft | 308 kts | 140° |
| 2026-05-09 00:59 | 56.14568 | -4.31499 | 12160 ft | 312 kts | 116° |
| 2026-05-09 00:59 | 56.14081 | -4.27711 | 11809 ft | 315 kts | 95° |
| 2026-05-09 01:00 | 56.13994 | -4.23797 | 11444 ft | 314 kts | 92° |
| 2026-05-09 01:00 | 56.13958 | -4.19885 | 11059 ft | 313 kts | 92° |
| 2026-05-09 01:00 | 56.13925 | -4.15980 | 10685 ft | 313 kts | 92° |
| 2026-05-09 01:00 | 56.13882 | -4.12138 | 10531 ft | 304 kts | 92° |
| 2026-05-09 01:01 | 56.13832 | -4.08395 | 10386 ft | 296 kts | 92° |
| 2026-05-09 01:01 | 56.13777 | -4.04757 | 10253 ft | 288 kts | 93° |
| 2026-05-09 01:01 | 56.13719 | -4.01206 | 10023 ft | 284 kts | 93° |
| 2026-05-09 01:01 | 56.13659 | -3.97669 | 9607 ft | 286 kts | 93° |
| 2026-05-09 01:02 | 56.13595 | -3.94097 | 9262 ft | 286 kts | 93° |
| 2026-05-09 01:02 | 56.13531 | -3.90539 | 8936 ft | 285 kts | 93° |
| 2026-05-09 01:02 | 56.13168 | -3.87106 | 8606 ft | 280 kts | 117° |
| 2026-05-09 01:02 | 56.12012 | -3.84397 | 8334 ft | 271 kts | 144° |
| 2026-05-09 01:03 | 56.10380 | -3.82835 | 8057 ft | 264 kts | 166° |
| 2026-05-09 01:03 | 56.08586 | -3.82255 | 7783 ft | 261 kts | 174° |
| 2026-05-09 01:03 | 56.06789 | -3.81883 | 7497 ft | 259 kts | 175° |
| 2026-05-09 01:03 | 56.05001 | -3.81536 | 7217 ft | 258 kts | 175° |
| 2026-05-09 01:04 | 56.03219 | -3.81185 | 6926 ft | 257 kts | 175° |
| 2026-05-09 01:04 | 56.01446 | -3.80829 | 6646 ft | 256 kts | 174° |
| 2026-05-09 01:04 | 55.99673 | -3.80465 | 6341 ft | 255 kts | 174° |
| 2026-05-09 01:04 | 55.97964 | -3.80110 | 6233 ft | 247 kts | 174° |
| 2026-05-09 01:05 | 55.96284 | -3.79758 | 6107 ft | 239 kts | 174° |
| 2026-05-09 01:05 | 55.94659 | -3.79417 | 6002 ft | 231 kts | 174° |
| 2026-05-09 01:05 | 55.91593 | -3.78770 | 5817 ft | 211 kts | 174° |
| 2026-05-09 01:06 | 55.90144 | -3.78464 | 5477 ft | 210 kts | 174° |
| 2026-05-09 01:06 | 55.88692 | -3.78158 | 5128 ft | 210 kts | 173° |
| 2026-05-09 01:06 | 55.87242 | -3.77853 | 4768 ft | 210 kts | 173° |
| 2026-05-09 01:06 | 55.85794 | -3.77548 | 4402 ft | 210 kts | 173° |
| 2026-05-09 01:07 | 55.84339 | -3.77241 | 4066 ft | 209 kts | 172° |
| 2026-05-09 01:07 | 55.82979 | -3.76396 | 3983 ft | 210 kts | 138° |
| 2026-05-09 01:07 | 55.81976 | -3.74529 | 3988 ft | 210 kts | 141° |
| 2026-05-09 01:07 | 55.80616 | -3.73774 | 3994 ft | 210 kts | 186° |
| 2026-05-09 01:08 | 55.79324 | -3.74895 | 3987 ft | 212 kts | 229° |
| 2026-05-09 01:08 | 55.78579 | -3.77136 | 3974 ft | 214 kts | 255° |
| 2026-05-09 01:08 | 55.78693 | -3.79676 | 3986 ft | 205 kts | 299° |
| 2026-05-09 01:08 | 55.79293 | -3.80901 | 3979 ft | 196 kts | 329° |
| 2026-05-09 01:09 | 55.80558 | -3.81311 | 3984 ft | 186 kts | 17° |
| 2026-05-09 01:09 | 55.81535 | -3.79950 | 3991 ft | 184 kts | 65° |
| 2026-05-09 01:09 | 55.81928 | -3.77762 | 4004 ft | 189 kts | 70° |
| 2026-05-09 01:09 | 55.82430 | -3.75585 | 4004 ft | 189 kts | 67° |
| 2026-05-09 01:10 | 55.82966 | -3.73462 | 3982 ft | 185 kts | 64° |
| 2026-05-09 01:10 | 55.83551 | -3.71466 | 3985 ft | 181 kts | 61° |
| 2026-05-09 01:10 | 55.84179 | -3.69500 | 4009 ft | 185 kts | 59° |
| 2026-05-09 01:10 | 55.84833 | -3.67515 | 3917 ft | 188 kts | 59° |
| 2026-05-09 01:11 | 55.85503 | -3.65508 | 3669 ft | 188 kts | 59° |
| 2026-05-09 01:11 | 55.86166 | -3.63528 | 3414 ft | 185 kts | 59° |
| 2026-05-09 01:11 | 55.86817 | -3.61587 | 3161 ft | 180 kts | 58° |
| 2026-05-09 01:11 | 55.87456 | -3.59680 | 2927 ft | 179 kts | 58° |
| 2026-05-09 01:12 | 55.88081 | -3.57816 | 2676 ft | 170 kts | 58° |
| 2026-05-09 01:12 | 55.88668 | -3.56064 | 2452 ft | 159 kts | 58° |
| 2026-05-09 01:12 | 55.89216 | -3.54431 | 2253 ft | 146 kts | 58° |
| 2026-05-09 01:12 | 55.89710 | -3.52961 | 2044 ft | 133 kts | 57° |
| 2026-05-09 01:13 | 55.90189 | -3.51537 | 1869 ft | 135 kts | 57° |
| 2026-05-09 01:13 | 55.90668 | -3.50112 | 1680 ft | 134 kts | 58° |
| 2026-05-09 01:13 | 55.91145 | -3.48696 | 1490 ft | 133 kts | 57° |
| 2026-05-09 01:13 | 55.91629 | -3.47263 | 1306 ft | 137 kts | 57° |
| 2026-05-09 01:14 | 55.92117 | -3.45815 | 1128 ft | 136 kts | 58° |
| 2026-05-09 01:14 | 55.92606 | -3.44357 | 938 ft | 136 kts | 58° |
| 2026-05-09 01:14 | 55.93090 | -3.42907 | 726 ft | 136 kts | 58° |
| 2026-05-09 01:14 | 55.93585 | -3.41461 | 571 ft | 136 kts | 59° |
| 2026-05-09 01:15 | 55.94069 | -3.40008 | 353 ft | 134 kts | 60° |
| 2026-05-09 01:15 | 55.94539 | -3.38616 | 132 ft | 129 kts | 61° |
| 2026-05-09 01:15 | 55.94956 | -3.37381 | 111 ft | 95 kts | 58° |
| 2026-05-09 01:15 | 55.95188 | -3.36696 | 113 ft | 36 kts | 58° |
| 2026-05-09 01:16 | 55.95259 | -3.36453 | 111 ft | 14 kts | 95° |
| 2026-05-09 01:16 | 55.95187 | -3.36344 | 114 ft | 14 kts | 148° |
| 2026-05-09 01:16 | 55.95110 | -3.36355 | 115 ft | 13 kts | 236° |
| 2026-05-09 01:17 | 55.95018 | -3.36623 | 114 ft | 12 kts | 238° |
| 2026-05-09 01:17 | 55.94973 | -3.36754 | 114 ft | 12 kts | 238° |
| 2026-05-09 01:17 | 55.94911 | -3.36817 | 112 ft | 12 kts | 153° |
| 2026-05-09 01:17 | 55.94835 | -3.36778 | 115 ft | 11 kts | 178° |
| 2026-05-09 01:18 | 55.94761 | -3.36751 | 113 ft | 10 kts | 140° |
| 2026-05-09 01:18 | 55.94751 | -3.36647 | 100 ft | 0 kts | 89° |